createdAt,value
2019-01-28T00:03:25.557Z,73.30
2019-01-28T00:07:28.979Z,74.10
2019-01-28T00:11:32.398Z,74.10
2019-01-28T00:15:35.806Z,74.10
2019-01-28T00:19:39.231Z,73.80
2019-01-28T00:23:42.724Z,74.00
2019-01-28T00:27:46.162Z,73.50
2019-01-28T00:31:49.593Z,73.90
2019-01-28T00:35:53.007Z,74.20
2019-01-28T00:39:56.430Z,73.40
2019-01-28T00:43:59.859Z,73.50
2019-01-28T00:48:03.346Z,73.50
2019-01-28T00:52:06.783Z,73.00
2019-01-28T00:56:10.279Z,72.90
2019-01-28T01:00:16.915Z,72.30
2019-01-28T01:04:20.344Z,72.50
2019-01-28T01:08:23.763Z,72.30
2019-01-28T01:12:27.188Z,72.10
2019-01-28T01:16:30.595Z,72.30
2019-01-28T01:20:34.015Z,72.20
2019-01-28T01:24:37.439Z,72.10
2019-01-28T01:28:40.862Z,71.70
2019-01-28T01:32:44.344Z,71.90
2019-01-28T01:36:47.779Z,72.50
2019-01-28T01:40:51.213Z,72.50
2019-01-28T01:44:54.632Z,72.50
2019-01-28T01:48:58.052Z,72.40
2019-01-28T01:53:01.458Z,72.20
2019-01-28T01:57:04.951Z,72.10
2019-01-28T02:01:08.367Z,72.20
2019-01-28T02:05:11.863Z,72.30
2019-01-28T02:09:15.302Z,72.20
2019-01-28T02:13:18.709Z,72.70
2019-01-28T02:17:22.131Z,72.20
2019-01-28T02:21:25.556Z,71.90
2019-01-28T02:25:29.123Z,72.00
2019-01-28T02:29:32.532Z,71.90
2019-01-28T02:33:35.959Z,71.90
2019-01-28T02:37:39.391Z,71.70
2019-01-28T02:41:42.818Z,71.70
2019-01-28T02:45:46.255Z,71.60
2019-01-28T02:49:49.668Z,71.70
2019-01-28T02:53:53.103Z,71.40
2019-01-28T02:57:56.528Z,71.40
2019-01-28T03:02:00.003Z,71.50
2019-01-28T03:06:03.418Z,71.40
2019-01-28T03:10:09.911Z,71.00
2019-01-28T03:14:13.332Z,70.60
2019-01-28T03:18:17.232Z,70.70
2019-01-28T03:22:20.656Z,70.60
2019-01-28T03:26:24.081Z,70.90
2019-01-28T03:30:27.582Z,70.60
2019-01-28T03:34:30.992Z,70.90
2019-01-28T03:38:34.415Z,70.70
2019-01-28T03:42:37.907Z,70.10
2019-01-28T03:46:41.328Z,70.00
2019-01-28T03:50:44.748Z,70.00
2019-01-28T03:54:48.167Z,69.40
2019-01-28T03:58:51.600Z,69.20
2019-01-28T04:02:55.027Z,69.20
2019-01-28T04:06:58.453Z,69.50
2019-01-28T04:11:01.885Z,69.70
2019-01-28T04:15:08.706Z,69.70
2019-01-28T04:19:12.130Z,69.40
2019-01-28T04:23:15.599Z,69.80
2019-01-28T04:27:19.053Z,69.70
2019-01-28T04:31:22.509Z,69.50
2019-01-28T04:35:26.007Z,69.30
2019-01-28T04:39:29.424Z,69.40
2019-01-28T04:43:32.835Z,69.30
2019-01-28T04:47:36.255Z,68.60
2019-01-28T04:51:39.683Z,69.30
2019-01-28T04:55:43.112Z,69.50
2019-01-28T04:59:46.534Z,69.50
2019-01-28T05:03:49.947Z,69.40
2019-01-28T05:07:53.374Z,69.20
2019-01-28T05:11:56.791Z,70.00
2019-01-28T05:16:00.223Z,69.90
2019-01-28T05:20:05.800Z,70.20
2019-01-28T05:24:09.199Z,70.20
2019-01-28T05:28:12.625Z,70.10
2019-01-28T05:32:16.192Z,70.30
2019-01-28T05:36:19.611Z,69.60
2019-01-28T05:40:26.111Z,70.10
2019-01-28T05:44:29.597Z,70.20
2019-01-28T05:48:33.027Z,69.50
2019-01-28T05:52:36.455Z,70.00
2019-01-28T05:56:39.875Z,70.20
2019-01-28T06:00:44.063Z,69.90
2019-01-28T06:04:47.471Z,70.10
2019-01-28T06:08:50.899Z,70.10
2019-01-28T06:12:54.326Z,70.30
2019-01-28T06:16:57.752Z,70.50
2019-01-28T06:21:01.239Z,70.50
2019-01-28T06:25:05.932Z,70.50
2019-01-28T06:29:09.372Z,70.40
2019-01-28T06:33:12.802Z,69.50
2019-01-28T06:37:16.228Z,70.10
2019-01-28T06:41:19.713Z,70.30
2019-01-28T06:45:23.206Z,70.40
2019-01-28T06:49:26.623Z,70.40
2019-01-28T06:53:30.054Z,70.80
2019-01-28T06:57:33.479Z,70.70
2019-01-28T07:01:36.888Z,71.40
2019-01-28T07:05:40.315Z,70.90
2019-01-28T07:09:43.734Z,71.00
2019-01-28T07:13:47.168Z,70.80
2019-01-28T07:17:55.134Z,70.60
2019-01-28T07:21:55.786Z,70.90
2019-01-28T07:25:59.223Z,71.00
2019-01-28T07:30:02.732Z,70.70
2019-01-28T07:34:06.202Z,70.60
2019-01-28T07:38:09.662Z,70.70
2019-01-28T07:42:13.227Z,69.70
2019-01-28T07:46:16.731Z,70.40
2019-01-28T07:50:20.231Z,70.40
2019-01-28T07:54:23.635Z,70.40
2019-01-28T07:58:27.059Z,70.10
2019-01-28T08:02:30.490Z,69.30
2019-01-28T08:06:33.958Z,70.00
2019-01-28T08:10:37.439Z,69.90
2019-01-28T08:14:40.855Z,70.00
2019-01-28T08:18:44.284Z,70.00
2019-01-28T08:22:48.152Z,70.30
2019-01-28T08:26:51.593Z,70.00
2019-01-28T08:30:55.058Z,70.10
2019-01-28T08:34:58.527Z,70.90
2019-01-28T08:39:02.043Z,70.80
2019-01-28T08:43:05.558Z,70.50
2019-01-28T08:47:08.973Z,71.40
2019-01-28T08:51:12.493Z,70.60
2019-01-28T08:55:18.760Z,70.70
2019-01-28T08:59:22.201Z,70.50
2019-01-28T09:03:25.626Z,71.30
2019-01-28T09:07:29.090Z,71.80
2019-01-28T09:11:32.593Z,71.50
2019-01-28T09:15:36.154Z,70.90
2019-01-28T09:19:39.582Z,70.90
2019-01-28T09:23:43.019Z,70.60
2019-01-28T09:27:46.446Z,70.40
2019-01-28T09:31:49.885Z,70.30
2019-01-28T09:35:53.391Z,69.80
2019-01-28T09:39:56.823Z,69.70
2019-01-28T09:44:00.323Z,69.60
2019-01-28T09:48:04.392Z,68.80
2019-01-28T09:52:07.894Z,68.70
2019-01-28T09:56:11.380Z,68.30
2019-01-28T10:00:26.415Z,68.20
2019-01-28T10:04:30.131Z,68.10
2019-01-28T10:08:33.643Z,68.60
2019-01-28T10:12:37.098Z,68.30
2019-01-28T10:16:40.703Z,68.30
2019-01-28T10:20:46.250Z,68.30
2019-01-28T10:24:49.770Z,68.80
2019-01-28T10:28:53.264Z,68.80
2019-01-28T10:32:56.789Z,68.90
2019-01-28T10:37:00.234Z,68.70
2019-01-28T10:41:05.222Z,69.60
2019-01-28T10:45:11.775Z,70.00
2019-01-28T10:49:15.523Z,70.50
2019-01-28T10:53:19.082Z,70.40
2019-01-28T10:57:22.541Z,69.80
2019-01-28T11:01:25.980Z,69.80
2019-01-28T11:05:29.550Z,70.10
2019-01-28T11:09:33.000Z,70.80
2019-01-28T11:13:36.504Z,70.90
2019-01-28T11:17:40.057Z,70.80
2019-01-28T11:21:43.535Z,71.00
2019-01-28T11:25:47.081Z,70.70
2019-01-28T11:29:50.702Z,71.70
2019-01-28T11:33:54.233Z,71.10
2019-01-28T11:37:57.744Z,70.70
2019-01-28T11:42:01.198Z,71.30
2019-01-28T11:46:06.548Z,71.80
2019-01-28T11:50:13.600Z,71.40
2019-01-28T11:54:17.019Z,71.80
2019-01-28T11:58:20.450Z,72.80
2019-01-28T12:02:23.874Z,72.70
2019-01-28T12:06:27.405Z,73.10
2019-01-28T12:10:30.882Z,73.60
2019-01-28T12:14:34.331Z,73.90
2019-01-28T12:18:37.778Z,74.00
2019-01-28T12:22:41.278Z,74.20
2019-01-28T12:26:44.691Z,73.60
2019-01-28T12:30:48.209Z,74.40
2019-01-28T12:34:51.650Z,74.40
2019-01-28T12:38:55.087Z,74.50
2019-01-28T12:42:58.613Z,74.00
2019-01-28T12:47:02.074Z,73.50
2019-01-28T12:51:05.775Z,73.80
2019-01-28T12:55:15.154Z,73.70
2019-01-28T12:59:18.584Z,73.70
2019-01-28T13:03:22.035Z,74.00
2019-01-28T13:07:25.464Z,73.70
2019-01-28T13:11:28.955Z,73.90
2019-01-28T13:15:51.891Z,74.70
2019-01-28T13:19:55.367Z,74.10
2019-01-28T13:23:58.809Z,74.10
2019-01-28T13:28:02.215Z,74.50
2019-01-28T13:32:05.732Z,75.30
2019-01-28T13:36:09.775Z,74.90
2019-01-28T13:40:15.780Z,75.60
2019-01-28T13:44:19.203Z,74.90
2019-01-28T13:48:22.632Z,76.60
2019-01-28T13:52:26.061Z,76.60
2019-01-28T13:56:29.488Z,76.50
2019-01-28T14:00:33.450Z,76.60
2019-01-28T14:04:36.851Z,76.80
2019-01-28T14:08:40.277Z,76.80
2019-01-28T14:12:43.692Z,76.70
2019-01-28T14:16:47.126Z,76.50
2019-01-28T14:20:53.474Z,76.40
2019-01-28T14:24:55.685Z,76.00
2019-01-28T14:28:59.115Z,76.20
2019-01-28T14:33:02.538Z,75.90
2019-01-28T14:37:06.172Z,75.80
2019-01-28T14:41:09.607Z,75.80
2019-01-28T14:45:13.659Z,75.50
2019-01-28T14:49:17.087Z,75.60
2019-01-28T14:53:20.506Z,75.70
2019-01-28T14:57:24.015Z,76.00
2019-01-28T15:01:27.419Z,75.90
2019-01-28T15:05:31.002Z,75.90
2019-01-28T15:09:34.423Z,76.00
2019-01-28T15:13:37.857Z,75.80
2019-01-28T15:17:41.443Z,76.20
2019-01-28T15:21:44.988Z,76.20
2019-01-28T15:25:48.466Z,75.80
2019-01-28T15:29:51.887Z,76.40
2019-01-28T15:33:55.362Z,76.50
2019-01-28T15:38:18.148Z,76.60
2019-01-28T15:42:21.564Z,76.00
2019-01-28T15:46:24.984Z,76.60
2019-01-28T15:50:28.565Z,76.70
2019-01-28T15:54:33.792Z,76.80
2019-01-28T15:58:37.238Z,76.40
2019-01-28T16:02:40.659Z,76.40
2019-01-28T16:06:44.093Z,77.20
2019-01-28T16:10:47.526Z,77.30
2019-01-28T16:14:50.949Z,77.20
2019-01-28T16:18:54.398Z,77.40
2019-01-28T16:22:58.235Z,77.20
2019-01-28T16:27:01.697Z,77.40
2019-01-28T16:31:05.216Z,77.90
2019-01-28T16:35:11.567Z,76.80
2019-01-28T16:39:15.019Z,77.50
2019-01-28T16:43:18.467Z,77.60
2019-01-28T16:47:21.895Z,77.60
2019-01-28T16:51:25.327Z,77.60
2019-01-28T16:55:28.818Z,77.60
2019-01-28T16:59:32.231Z,77.60
2019-01-28T17:03:35.660Z,77.50
2019-01-28T17:07:39.087Z,77.70
2019-01-28T17:11:42.531Z,77.70
2019-01-28T17:15:45.943Z,77.90
2019-01-28T17:19:49.354Z,77.70
2019-01-28T17:23:52.812Z,78.00
2019-01-28T17:27:56.239Z,78.10
2019-01-28T17:31:59.671Z,77.80
2019-01-28T17:36:03.108Z,78.20
2019-01-28T17:40:27.123Z,78.30
2019-01-28T17:44:32.165Z,77.70
2019-01-28T17:48:35.777Z,78.30
2019-01-28T17:52:39.203Z,78.40
2019-01-28T17:56:42.627Z,77.90
2019-01-28T18:00:50.901Z,77.90
2019-01-28T18:04:54.346Z,78.60
2019-01-28T18:08:57.855Z,78.70
2019-01-28T18:13:01.287Z,78.20
2019-01-28T18:17:04.859Z,78.70
2019-01-28T18:21:08.269Z,78.80
2019-01-28T18:25:13.999Z,78.90
2019-01-28T18:29:17.427Z,78.70
2019-01-28T18:33:20.876Z,78.60
2019-01-28T18:37:24.368Z,78.90
2019-01-28T18:41:27.770Z,78.90
2019-01-28T18:45:31.271Z,78.30
2019-01-28T18:49:34.703Z,79.00
2019-01-28T18:53:38.131Z,79.60
2019-01-28T18:57:41.555Z,77.90
2019-01-28T19:01:44.962Z,78.70
2019-01-28T19:05:50.105Z,78.50
2019-01-28T19:09:53.995Z,78.90
2019-01-28T19:14:08.115Z,78.80
2019-01-28T19:18:19.233Z,78.80
2019-01-28T19:22:24.294Z,79.10
2019-01-28T19:26:27.707Z,79.30
2019-01-28T19:30:31.131Z,79.10
2019-01-28T19:34:34.870Z,78.40
2019-01-28T19:38:38.662Z,78.70
2019-01-28T19:42:42.157Z,78.70
2019-01-28T19:46:45.601Z,78.60
2019-01-28T19:50:49.164Z,78.70
2019-01-28T19:54:52.583Z,77.90
2019-01-28T19:58:55.999Z,78.00
2019-01-28T20:02:59.554Z,78.50
2019-01-28T20:07:02.983Z,78.60
2019-01-28T20:11:06.484Z,78.60
2019-01-28T20:15:18.792Z,78.50
2019-01-28T20:19:22.207Z,77.90
2019-01-28T20:23:26.920Z,78.60
2019-01-28T20:27:30.560Z,78.60
2019-01-28T20:31:34.055Z,78.60
2019-01-28T20:35:37.482Z,78.50
2019-01-28T20:39:40.907Z,78.60
2019-01-28T20:43:44.335Z,78.40
2019-01-28T20:47:47.761Z,78.50
2019-01-28T20:51:52.072Z,78.50
2019-01-28T20:55:55.540Z,78.40
2019-01-28T20:59:58.960Z,78.50
2019-01-28T21:04:02.425Z,78.20
2019-01-28T21:08:06.350Z,78.30
2019-01-28T21:12:09.930Z,78.20
2019-01-28T21:16:13.381Z,78.20
2019-01-28T21:20:18.975Z,78.30
2019-01-28T21:24:22.391Z,78.10
2019-01-28T21:28:25.895Z,78.20
2019-01-28T21:32:29.335Z,78.00
2019-01-28T21:36:40.215Z,78.20
2019-01-28T21:40:43.772Z,77.80
2019-01-28T21:44:47.211Z,77.50
2019-01-28T21:48:50.703Z,77.30
2019-01-28T21:52:54.127Z,77.20
2019-01-28T21:56:57.539Z,76.90
2019-01-28T22:01:01.016Z,76.30
2019-01-28T22:05:07.011Z,75.90
2019-01-28T22:09:10.430Z,75.20
2019-01-28T22:13:13.897Z,74.80
2019-01-28T22:17:17.311Z,75.50
2019-01-28T22:21:20.735Z,75.30
2019-01-28T22:25:24.226Z,74.40
2019-01-28T22:29:27.656Z,75.10
2019-01-28T22:33:31.075Z,75.30
2019-01-28T22:37:34.482Z,74.40
2019-01-28T22:41:37.962Z,75.10
2019-01-28T22:45:41.408Z,75.10
2019-01-28T22:49:44.820Z,75.30
2019-01-28T22:53:48.245Z,74.80
2019-01-28T22:57:51.668Z,73.90
2019-01-28T23:01:55.095Z,74.10
2019-01-28T23:05:58.523Z,74.50
2019-01-28T23:10:01.952Z,74.30
2019-01-28T23:14:06.826Z,73.40
2019-01-28T23:18:10.372Z,72.30
2019-01-28T23:22:16.408Z,72.80
2019-01-28T23:26:18.991Z,72.90
2019-01-28T23:30:22.518Z,72.60
2019-01-28T23:34:25.983Z,72.30
2019-01-28T23:38:29.394Z,71.80
2019-01-28T23:42:32.815Z,71.70
2019-01-28T23:46:36.243Z,71.90
2019-01-28T23:50:39.658Z,71.90
2019-01-28T23:54:43.132Z,72.10
2019-01-28T23:58:46.563Z,72.20
